Time;durP1;ratioP1;P1;durP2;ratioP2;P2;SDS_P1;SDS_P2;PMS_P1;PMS_P2;Temp;Humidity;BMP_temperature;BMP_pressure;BME280_temperature;BME280_humidity;BME280_pressure;Samples;Min_cycle;Max_cycle;Signal;HPM_P1;HPM_P2
2022/10/22 00:01:46;;;;;;;8.93;6.05;;;;;;;10.63;100.00;100732.44;6274055;22;20153;-86
2022/10/22 00:04:11;;;;;;;8.10;6.10;;;;;;;10.64;100.00;100726.19;6270967;22;20018;-85
2022/10/22 00:06:36;;;;;;;9.90;7.03;;;;;;;10.64;100.00;100727.03;6273845;22;20007;-84
2022/10/22 00:09:02;;;;;;;7.60;6.30;;;;;;;10.63;100.00;100724.47;6274648;22;20038;-84
2022/10/22 00:11:28;;;;;;;7.45;6.13;;;;;;;10.66;100.00;100729.63;6275526;22;19999;-85
2022/10/22 00:13:53;;;;;;;9.93;6.55;;;;;;;10.61;100.00;100731.66;6272919;22;20031;-86
2022/10/22 00:16:19;;;;;;;9.55;6.47;;;;;;;10.58;100.00;100737.16;6272695;22;20015;-86
2022/10/22 00:18:44;;;;;;;10.30;6.60;;;;;;;10.54;100.00;100730.28;6274755;22;20003;-85
2022/10/22 00:21:10;;;;;;;8.20;6.38;;;;;;;10.57;100.00;100732.75;6274498;22;20330;-84
2022/10/22 00:23:35;;;;;;;10.13;6.63;;;;;;;10.53;100.00;100732.06;6274501;22;20437;-86
2022/10/22 00:26:00;;;;;;;9.05;6.30;;;;;;;10.52;100.00;100725.00;6275334;22;20049;-86
2022/10/22 00:28:26;;;;;;;10.63;6.88;;;;;;;10.59;100.00;100725.56;6273512;22;20011;-85
2022/10/22 00:30:58;;;;;;;12.73;7.30;;;;;;;10.59;100.00;100737.06;6274299;22;19999;-85
2022/10/22 00:33:24;;;;;;;10.30;7.60;;;;;;;10.55;100.00;100730.19;6273104;22;20011;-85
2022/10/22 00:35:50;;;;;;;10.93;7.47;;;;;;;10.54;100.00;100736.47;6274288;22;20062;-86
2022/10/22 00:38:15;;;;;;;11.23;7.45;;;;;;;10.57;100.00;100736.28;6273564;22;20392;-86
2022/10/22 00:40:40;;;;;;;13.60;7.40;;;;;;;10.54;100.00;100733.78;6274062;22;20464;-86
2022/10/22 00:43:10;;;;;;;9.77;7.88;;;;;;;10.57;100.00;100730.09;6273638;22;20008;-86
2022/10/22 00:45:35;;;;;;;12.75;8.18;;;;;;;10.59;100.00;100722.91;6274523;22;19999;-86
2022/10/22 00:48:04;;;;;;;12.18;8.02;;;;;;;10.66;100.00;100734.97;6271884;22;20056;-85
2022/10/22 00:50:40;;;;;;;13.68;7.78;;;;;;;10.62;100.00;100736.06;6272627;22;20034;-86
2022/10/22 00:53:09;;;;;;;12.00;8.65;;;;;;;10.66;100.00;100734.97;6272065;22;20042;-85
2022/10/22 00:55:34;;;;;;;13.15;8.52;;;;;;;10.61;100.00;100729.84;6274122;22;20078;-85
2022/10/22 00:58:00;;;;;;;11.52;8.25;;;;;;;10.64;100.00;100743.00;6273955;22;20028;-85
2022/10/22 01:00:26;;;;;;;10.25;7.40;;;;;;;10.62;100.00;100741.38;6272703;22;20070;-85
2022/10/22 01:02:52;;;;;;;10.63;7.57;;;;;;;10.57;100.00;100732.75;6273026;22;20011;-85
2022/10/22 01:05:18;;;;;;;9.10;7.82;;;;;;;10.59;100.00;100734.41;6272723;22;19999;-85
2022/10/22 01:07:48;;;;;;;11.15;7.32;;;;;;;10.55;100.00;100732.84;6274291;22;20011;-85
2022/10/22 01:10:44;;;;;;;11.07;7.78;;;;;;;10.53;100.00;100731.19;6273267;22;20074;-86
2022/10/22 01:13:38;;;;;;;10.50;7.78;;;;;;;10.50;100.00;100726.06;6236740;22;20008;-85
2022/10/22 01:16:09;;;;;;;;;;;;;;;10.51;100.00;100733.09;6273701;22;20004;-86
2022/10/22 01:18:55;;;;;;;11.55;7.40;;;;;;;10.49;100.00;100738.47;6273849;22;19993;-85
2022/10/22 01:21:29;;;;;;;12.52;7.55;;;;;;;10.45;100.00;100731.63;6273107;22;19999;-85
2022/10/22 01:24:16;;;;;;;12.52;7.18;;;;;;;10.44;100.00;100737.84;6273649;22;20007;-85
2022/10/22 01:26:41;;;;;;;13.65;7.90;;;;;;;10.46;100.00;100733.34;6273438;22;20000;-85
2022/10/22 01:29:21;;;;;;;10.68;7.95;;;;;;;10.42;100.00;100727.31;6273712;22;19999;-85
2022/10/22 01:32:09;;;;;;;12.90;7.57;;;;;;;10.44;100.00;100721.88;6276113;22;20098;-86
2022/10/22 01:34:37;;;;;;;9.57;6.80;;;;;;;10.42;100.00;100727.31;6273891;22;20012;-85
2022/10/22 01:37:03;;;;;;;10.73;7.65;;;;;;;10.51;100.00;100730.44;6272869;22;20011;-84
2022/10/22 01:39:29;;;;;;;13.73;8.23;;;;;;;10.50;100.00;100726.06;6273080;22;20008;-85
2022/10/22 01:41:56;;;;;;;12.98;7.60;;;;;;;10.46;100.00;100720.88;6271486;22;19991;-85
2022/10/22 01:44:31;;;;;;;10.82;7.35;;;;;;;10.46;100.00;100728.00;6272859;22;20007;-85
2022/10/22 01:47:02;;;;;;;13.95;7.50;;;;;;;10.43;100.00;100729.03;6273213;22;20541;-85
2022/10/22 01:49:39;;;;;;;14.85;8.13;;;;;;;10.45;100.00;100716.50;6274680;22;20010;-85
2022/10/22 01:52:50;;;;;;;13.05;8.20;;;;;;;10.44;100.00;100730.72;6272534;22;20003;-85
2022/10/22 01:55:32;;;;;;;12.98;8.07;;;;;;;10.43;100.00;100726.34;6179048;23;20059;-86
2022/10/22 01:58:05;;;;;;;13.45;8.38;;;;;;;10.43;100.00;100718.38;6179825;23;20549;-86
2022/10/22 02:00:31;;;;;;;9.40;7.53;;;;;;;10.40;100.00;100723.84;6179190;23;20519;-85
2022/10/22 02:03:14;;;;;;;11.65;7.70;;;;;;;10.38;100.00;100724.88;6177473;23;20075;-86
2022/10/22 02:05:47;;;;;;;14.70;8.55;;;;;;;10.43;100.00;100712.19;6178964;23;20008;-86
2022/10/22 02:08:20;;;;;;;13.27;8.68;;;;;;;10.52;100.00;100729.47;6179130;23;20055;-85
2022/10/22 02:10:47;;;;;;;11.40;8.98;;;;;;;10.45;100.00;100721.84;6199526;23;20017;-85
2022/10/22 02:13:17;;;;;;;16.25;8.35;;;;;;;10.43;100.00;100722.84;6186768;23;20095;-85
2022/10/22 02:15:45;;;;;;;11.25;7.93;;;;;;;10.39;100.00;100713.28;6181999;23;20427;-86
2022/10/22 02:18:11;;;;;;;14.45;7.60;;;;;;;10.40;100.00;100717.66;6183012;23;20008;-85
2022/10/22 02:20:40;;;;;;;16.02;8.45;;;;;;;10.36;100.00;100724.09;6179869;23;20016;-85
2022/10/22 02:23:06;;;;;;;13.98;9.02;;;;;;;10.46;100.00;100720.03;6179146;23;20211;-86
2022/10/22 02:25:36;;;;;;;12.75;8.13;;;;;;;10.34;100.00;100716.19;6180059;23;20458;-85
2022/10/22 02:28:20;;;;;;;12.55;7.70;;;;;;;10.34;100.00;100720.66;6186268;22;20450;-86
2022/10/22 02:30:48;;;;;;;;;;;;;;;10.30;100.00;100733.25;6275693;22;20006;-86
2022/10/22 02:33:21;;;;;;;11.25;7.75;;;;;;;10.27;100.00;100729.88;6274005;22;19942;-86
2022/10/22 02:35:48;;;;;;;15.45;8.38;;;;;;;10.35;100.00;100730.34;6275756;22;20008;-85
2022/10/22 02:38:14;;;;;;;14.57;8.82;;;;;;;10.25;100.00;100711.34;6274553;22;20385;-85
2022/10/22 02:40:40;;;;;;;12.40;8.65;;;;;;;10.33;100.00;100719.81;6273119;22;20082;-85
2022/10/22 02:43:05;;;;;;;16.55;9.57;;;;;;;10.41;100.00;100730.91;6270767;22;20446;-86
2022/10/22 02:45:31;;;;;;;16.30;9.15;;;;;;;10.48;100.00;100728.78;6271762;22;20006;-85
2022/10/22 02:47:57;;;;;;;11.77;8.98;;;;;;;10.41;100.00;100725.59;6273602;22;20049;-85
2022/10/22 02:50:22;;;;;;;14.60;9.68;;;;;;;10.36;100.00;100726.75;6271718;22;20405;-85
2022/10/22 02:52:47;;;;;;;15.77;9.70;;;;;;;10.38;100.00;100728.41;6273859;22;20767;-86
2022/10/22 02:55:13;;;;;;;15.57;9.80;;;;;;;10.39;100.00;100732.78;6273748;22;20022;-85
2022/10/22 02:57:38;;;;;;;16.85;10.02;;;;;;;10.35;100.00;100723.22;6275313;22;20056;-86
2022/10/22 03:00:06;;;;;;;14.80;9.93;;;;;;;10.44;100.00;100736.06;6274660;22;20065;-84
2022/10/22 03:02:32;;;;;;;14.13;9.38;;;;;;;10.40;100.00;100736.28;6274608;22;20055;-86
2022/10/22 03:04:58;;;;;;;16.35;9.88;;;;;;;10.38;100.00;100740.84;6275269;22;20011;-86
2022/10/22 03:07:23;;;;;;;13.80;9.25;;;;;;;10.33;100.00;100743.75;6273558;22;19999;-85
2022/10/22 03:09:48;;;;;;;13.88;9.95;;;;;;;10.41;100.00;100740.69;6278578;22;20077;-85
2022/10/22 03:12:13;;;;;;;14.38;9.93;;;;;;;10.35;100.00;100735.69;6273401;22;20006;-85
2022/10/22 03:14:39;;;;;;;14.77;9.52;;;;;;;10.38;100.00;100757.66;6274254;22;20003;-85
2022/10/22 03:17:04;;;;;;;16.58;9.77;;;;;;;10.42;100.00;100753.06;6274294;22;20046;-85
2022/10/22 03:19:29;;;;;;;14.95;10.15;;;;;;;10.51;100.00;100754.38;6283396;22;20083;-85
2022/10/22 03:22:01;;;;;;;17.23;10.18;;;;;;;10.44;100.00;100751.16;6277755;22;20034;-86
2022/10/22 03:24:33;;;;;;;13.55;9.20;;;;;;;10.43;100.00;100749.44;6276556;22;20126;-86
2022/10/22 03:26:58;;;;;;;16.15;9.15;;;;;;;10.42;100.00;100756.56;6282338;22;20251;-86
2022/10/22 03:29:26;;;;;;;16.02;9.50;;;;;;;10.43;100.00;100755.63;6279245;22;20413;-84
2022/10/22 03:31:52;;;;;;;17.50;9.88;;;;;;;10.37;100.00;100753.28;6276425;22;20426;-86
2022/10/22 03:34:17;;;;;;;14.95;9.55;;;;;;;10.33;100.00;100753.53;6278523;22;20004;-84
2022/10/22 03:36:43;;;;;;;16.55;9.45;;;;;;;10.30;100.00;100757.19;6276231;22;20046;-86
2022/10/22 03:39:10;;;;;;;11.80;9.20;;;;;;;10.32;100.00;100771.28;6275011;22;20418;-85
2022/10/22 03:41:36;;;;;;;15.73;9.82;;;;;;;10.38;100.00;100773.63;6277223;22;20008;-85
2022/10/22 03:44:03;;;;;;;17.30;9.90;;;;;;;10.38;100.00;100770.97;6273405;22;20429;-85
2022/10/22 03:46:28;;;;;;;16.60;9.55;;;;;;;10.43;100.00;100773.41;6273349;22;20009;-86
2022/10/22 03:48:54;;;;;;;16.58;11.38;;;;;;;10.43;100.00;100768.06;6271462;22;20034;-86
2022/10/22 03:51:19;;;;;;;18.05;11.25;;;;;;;10.43;100.00;100765.41;6270180;22;20010;-86
2022/10/22 03:53:44;;;;;;;18.90;11.75;;;;;;;10.44;100.00;100781.28;6271035;22;20046;-85
2022/10/22 03:56:11;;;;;;;21.65;12.45;;;;;;;10.50;100.00;100771.28;6268975;22;20073;-86
2022/10/22 03:58:38;;;;;;;18.98;11.73;;;;;;;10.35;100.00;100755.16;6269728;22;20019;-86
2022/10/22 04:01:09;;;;;;;17.88;11.55;;;;;;;10.49;100.00;100775.72;6270741;22;20014;-85
2022/10/22 04:03:34;;;;;;;17.52;11.02;;;;;;;10.51;100.00;100778.31;6272108;22;20003;-85
2022/10/22 04:06:08;;;;;;;17.77;10.73;;;;;;;10.52;100.00;100782.69;6270427;22;20432;-84
2022/10/22 04:08:33;;;;;;;;;;;;;;;10.42;100.00;100788.50;6271374;22;20012;-85
2022/10/22 04:10:58;;;;;;;16.58;10.32;;;;;;;10.42;100.00;100791.16;6271760;22;20376;-85
2022/10/22 04:13:24;;;;;;;21.65;10.93;;;;;;;10.40;100.00;100779.72;6268827;22;20045;-86
2022/10/22 04:15:50;;;;;;;20.00;11.70;;;;;;;10.44;100.00;100783.09;6274084;22;20342;-86
2022/10/22 04:18:17;;;;;;;18.42;11.40;;;;;;;10.39;100.00;100778.00;6273997;22;20015;-85
2022/10/22 04:20:42;;;;;;;17.73;10.25;;;;;;;10.29;100.00;100786.56;6272040;22;20087;-85
2022/10/22 04:23:08;;;;;;;18.05;9.80;;;;;;;10.31;100.00;100789.97;6273061;22;20046;-85
2022/10/22 04:25:33;;;;;;;15.50;9.07;;;;;;;10.26;100.00;100782.22;6274527;22;20008;-86
2022/10/22 04:27:58;;;;;;;14.10;9.25;;;;;;;10.23;100.00;100785.88;6274981;22;20019;-86
2022/10/22 04:30:23;;;;;;;15.30;8.95;;;;;;;10.28;100.00;100788.31;6274479;22;19995;-85
2022/10/22 04:32:49;;;;;;;15.80;9.25;;;;;;;10.18;100.00;100787.03;6273239;22;20090;-85
2022/10/22 04:35:14;;;;;;;14.75;9.77;;;;;;;10.27;100.00;100791.94;6272583;22;20008;-86
2022/10/22 04:37:39;;;;;;;20.27;10.13;;;;;;;10.28;100.00;100792.78;6274494;22;20003;-85
2022/10/22 04:40:05;;;;;;;15.15;9.00;;;;;;;10.22;100.00;100786.81;6273944;22;20474;-86
2022/10/22 04:42:31;;;;;;;16.40;9.73;;;;;;;10.33;100.00;100788.13;6273158;22;20031;-85
2022/10/22 04:44:56;;;;;;;15.70;10.10;;;;;;;10.33;100.00;100786.31;6274662;22;20034;-86
2022/10/22 04:47:21;;;;;;;20.23;10.80;;;;;;;10.35;100.00;100786.22;6274751;22;20069;-84
2022/10/22 04:49:46;;;;;;;15.45;9.45;;;;;;;10.30;100.00;100789.13;6273667;22;20000;-85
2022/10/22 04:52:12;;;;;;;16.95;8.77;;;;;;;10.29;100.00;100781.22;6271950;22;20052;-85
2022/10/22 04:54:37;;;;;;;20.23;9.43;;;;;;;10.33;100.00;100796.97;6274719;22;20456;-85
2022/10/22 04:57:02;;;;;;;13.88;9.05;;;;;;;10.33;100.00;100791.63;6279486;22;20011;-85
2022/10/22 04:59:28;;;;;;;21.83;10.23;;;;;;;10.41;100.00;100799.22;6285937;22;20016;-84
2022/10/22 05:01:53;;;;;;;20.45;9.82;;;;;;;10.38;100.00;100802.91;6279930;22;20007;-84
2022/10/22 05:04:18;;;;;;;15.40;9.98;;;;;;;10.38;100.00;100802.91;6278782;22;20029;-85
2022/10/22 05:06:44;;;;;;;15.70;10.10;;;;;;;10.43;100.00;100803.53;6274471;22;20007;-85
2022/10/22 05:09:14;;;;;;;21.15;10.50;;;;;;;10.52;100.00;100809.31;6275659;22;20110;-85
2022/10/22 05:11:47;;;;;;;22.77;10.80;;;;;;;10.48;100.00;100809.47;6274825;22;19996;-84
2022/10/22 05:14:14;;;;;;;18.33;10.20;;;;;;;10.52;100.00;100806.66;6275194;22;20027;-85
2022/10/22 05:16:39;;;;;;;17.73;10.02;;;;;;;10.60;100.00;100804.47;6276588;22;20014;-85
2022/10/22 05:19:05;;;;;;;21.63;9.95;;;;;;;10.71;100.00;100816.28;6275085;22;20086;-85
2022/10/22 05:21:31;;;;;;;17.85;10.52;;;;;;;10.78;100.00;100808.81;6273212;22;20011;-85
2022/10/22 05:23:58;;;;;;;17.83;10.40;;;;;;;10.86;100.00;100805.75;6272351;22;20003;-86
2022/10/22 05:26:25;;;;;;;17.67;10.63;;;;;;;10.91;100.00;100806.38;6268812;22;20004;-85
2022/10/22 05:28:50;;;;;;;16.15;10.13;;;;;;;10.90;100.00;100802.84;6270863;22;20018;-85
2022/10/22 05:31:17;;;;;;;18.25;9.07;;;;;;;11.08;100.00;100821.50;6273019;22;20008;-86
2022/10/22 05:33:44;;;;;;;15.63;9.80;;;;;;;11.10;100.00;100814.25;6274104;22;20053;-85
2022/10/22 05:36:17;;;;;;;19.92;8.75;;;;;;;11.06;100.00;100818.03;6273469;22;20007;-85
2022/10/22 05:38:43;;;;;;;15.48;8.75;;;;;;;11.10;100.00;100819.59;6274744;22;20657;-84
2022/10/22 05:41:13;;;;;;;15.43;8.05;;;;;;;11.09;100.00;100818.72;6273128;22;20010;-85
2022/10/22 05:43:39;;;;;;;14.50;7.53;;;;;;;11.15;100.00;100822.84;6274766;22;20087;-85
2022/10/22 05:46:10;;;;;;;15.05;7.65;;;;;;;11.10;100.00;100816.91;6275563;22;20011;-85
2022/10/22 05:48:35;;;;;;;14.75;7.78;;;;;;;11.13;100.00;100824.75;6277488;22;20007;-87
2022/10/22 05:51:07;;;;;;;16.58;7.10;;;;;;;11.15;100.00;100830.84;6271595;22;20443;-86
2022/10/22 05:53:33;;;;;;;16.80;7.55;;;;;;;11.13;100.00;100832.75;6276591;22;20008;-86
2022/10/22 05:56:04;;;;;;;14.80;6.93;;;;;;;11.10;100.00;100824.91;6276104;22;20000;-85
2022/10/22 05:58:30;;;;;;;15.32;7.13;;;;;;;11.11;100.00;100843.47;6276220;22;20003;-85
2022/10/22 06:01:12;;;;;;;13.27;7.00;;;;;;;11.10;100.00;100846.22;6274821;22;20008;-84
2022/10/22 06:03:37;;;;;;;20.33;8.00;;;;;;;11.11;100.00;100834.63;6278820;22;20011;-85
2022/10/22 06:06:14;;;;;;;16.83;8.02;;;;;;;11.10;100.00;100839.09;6278478;22;20007;-85
2022/10/22 06:08:39;;;;;;;11.65;5.70;;;;;;;11.12;100.00;100847.88;6276982;22;20011;-85
2022/10/22 06:11:05;;;;;;;14.07;6.13;;;;;;;11.10;100.00;100851.56;6272918;22;20019;-86
2022/10/22 06:13:31;;;;;;;17.77;6.13;;;;;;;11.13;100.00;100852.25;6275486;22;20076;-86
2022/10/22 06:15:57;;;;;;;15.02;5.93;;;;;;;11.17;100.00;100872.47;6272825;22;20004;-85
2022/10/22 06:18:22;;;;;;;12.63;5.22;;;;;;;11.20;100.00;100868.75;6272801;22;20003;-84
2022/10/22 06:20:47;;;;;;;14.93;5.85;;;;;;;11.22;100.00;100874.88;6273144;22;20004;-83
2022/10/22 06:23:13;;;;;;;17.10;5.88;;;;;;;11.21;100.00;100870.50;6273275;22;20333;-86
2022/10/22 06:25:39;;;;;;;16.80;5.82;;;;;;;11.20;100.00;100874.09;6272793;22;20590;-87
2022/10/22 06:28:04;;;;;;;14.75;5.72;;;;;;;11.19;100.00;100873.22;6273568;22;20000;-86
2022/10/22 06:30:29;;;;;;;15.30;5.90;;;;;;;11.17;100.00;100884.94;6271777;22;20422;-85
2022/10/22 06:32:55;;;;;;;12.68;6.07;;;;;;;11.16;100.00;100877.84;6272539;22;20012;-86
2022/10/22 06:35:20;;;;;;;13.35;5.93;;;;;;;11.15;100.00;100887.66;6274094;22;20034;-85
2022/10/22 06:37:46;;;;;;;13.65;6.38;;;;;;;11.20;100.00;100884.75;6272099;22;20425;-86
2022/10/22 06:40:11;;;;;;;13.18;5.88;;;;;;;11.28;100.00;100893.19;6272528;22;20010;-85
2022/10/22 06:42:37;;;;;;;14.32;5.82;;;;;;;11.41;100.00;100899.63;6272769;22;20007;-85
2022/10/22 06:45:02;;;;;;;15.38;5.45;;;;;;;11.54;100.00;100904.28;6272719;22;20038;-86
2022/10/22 06:47:30;;;;;;;14.00;5.63;;;;;;;11.61;100.00;100903.84;6272789;22;20003;-84
2022/10/22 06:49:55;;;;;;;10.77;5.20;;;;;;;11.68;100.00;100909.72;6273185;22;20054;-85
2022/10/22 06:52:21;;;;;;;13.38;5.20;;;;;;;11.76;100.00;100923.50;6271982;22;20007;-85
2022/10/22 06:54:46;;;;;;;12.55;4.53;;;;;;;11.78;100.00;100913.59;6274022;22;20078;-85
2022/10/22 06:57:11;;;;;;;12.75;4.60;;;;;;;11.85;100.00;100928.38;6273132;22;20014;-84
2022/10/22 06:59:37;;;;;;;12.95;4.65;;;;;;;11.91;100.00;100933.38;6273309;22;20441;-85
2022/10/22 07:02:02;;;;;;;13.95;4.57;;;;;;;11.96;100.00;100928.63;6272163;22;20082;-84
2022/10/22 07:04:27;;;;;;;13.02;4.35;;;;;;;12.00;100.00;100937.34;6272907;22;20010;-85
2022/10/22 07:06:56;;;;;;;12.18;4.22;;;;;;;11.94;100.00;100932.31;6270431;22;20402;-85
2022/10/22 07:09:21;;;;;;;9.18;4.43;;;;;;;11.98;100.00;100944.53;6272139;22;20000;-85
2022/10/22 07:11:46;;;;;;;8.93;4.15;;;;;;;12.00;100.00;100941.78;6273082;22;20004;-85
2022/10/22 07:14:13;;;;;;;9.85;4.47;;;;;;;12.06;100.00;100949.47;6270919;22;20066;-84
2022/10/22 07:16:41;;;;;;;12.10;4.55;;;;;;;12.15;100.00;100956.94;6272520;22;20064;-85
2022/10/22 07:19:07;;;;;;;9.77;4.07;;;;;;;12.17;100.00;100952.41;6271939;22;20007;-84
2022/10/22 07:21:32;;;;;;;11.95;4.25;;;;;;;12.25;100.00;100951.94;6270662;22;19984;-86
2022/10/22 07:23:58;;;;;;;11.05;4.18;;;;;;;12.33;100.00;100961.28;6272609;22;20329;-85
2022/10/22 07:26:24;;;;;;;11.65;4.10;;;;;;;12.40;100.00;100959.97;6271300;22;20006;-85
2022/10/22 07:28:50;;;;;;;7.75;3.70;;;;;;;12.48;100.00;100975.56;6272894;22;20027;-85
2022/10/22 07:31:17;;;;;;;10.65;3.75;;;;;;;12.55;100.00;100973.41;6271610;22;20010;-85
2022/10/22 07:33:42;;;;;;;13.55;3.90;;;;;;;12.59;100.00;100977.63;6271908;22;20086;-84
2022/10/22 07:36:11;;;;;;;11.45;4.07;;;;;;;12.60;100.00;100987.34;6272337;22;20006;-84
2022/10/22 07:38:36;;;;;;;10.48;3.88;;;;;;;12.68;100.00;100991.31;6285142;22;19987;-87
2022/10/22 07:41:02;;;;;;;13.65;4.40;;;;;;;12.69;100.00;100994.84;6289334;22;19992;-85
2022/10/22 07:43:28;;;;;;;12.60;4.05;;;;;;;12.69;100.00;100997.50;6295143;22;20060;-86
2022/10/22 07:45:56;;;;;;;9.77;3.75;;;;;;;12.74;100.00;100989.22;6293681;22;20019;-86
2022/10/22 07:48:22;;;;;;;8.50;3.58;;;;;;;12.77;100.00;100995.25;6283251;22;20103;-90
2022/10/22 07:50:50;;;;;;;10.70;4.07;;;;;;;12.72;100.00;100997.34;6284072;22;20041;-87
2022/10/22 07:53:15;;;;;;;12.10;4.20;;;;;;;12.71;100.00;101000.97;6285748;22;20185;-86
2022/10/22 07:55:41;;;;;;;10.60;3.92;;;;;;;12.65;100.00;101001.28;6283475;22;20027;-88
2022/10/22 07:58:06;;;;;;;9.65;4.30;;;;;;;12.63;100.00;101006.75;6278651;22;19988;-86
2022/10/22 08:00:31;;;;;;;15.73;5.28;;;;;;;12.63;100.00;101009.41;6277309;22;20018;-88
2022/10/22 08:02:57;;;;;;;11.82;4.35;;;;;;;12.72;100.00;101005.34;6278613;22;20011;-88
2022/10/22 08:05:22;;;;;;;11.18;3.65;;;;;;;12.97;100.00;101004.78;6276682;22;20012;-85
2022/10/22 08:07:47;;;;;;;13.70;4.25;;;;;;;13.15;100.00;101003.69;6278156;22;20053;-84
2022/10/22 08:10:13;;;;;;;13.05;4.72;;;;;;;13.42;100.00;101009.28;6276862;22;20012;-84
2022/10/22 08:12:40;;;;;;;11.90;4.45;;;;;;;13.55;100.00;101016.56;6275982;22;20004;-82
2022/10/22 08:15:06;;;;;;;12.68;3.97;;;;;;;13.73;100.00;101023.44;6277706;22;20008;-84
2022/10/22 08:17:31;;;;;;;12.52;4.13;;;;;;;13.79;100.00;101020.38;6278641;22;20009;-89
2022/10/22 08:19:57;;;;;;;14.43;4.57;;;;;;;13.74;100.00;101019.81;6277277;22;20015;-86
2022/10/22 08:22:22;;;;;;;10.20;3.83;;;;;;;13.72;100.00;101016.38;6273439;22;20386;-84
2022/10/22 08:24:48;;;;;;;15.55;4.85;;;;;;;13.76;100.00;101031.28;6277138;22;20072;-84
2022/10/22 08:27:13;;;;;;;9.15;3.75;;;;;;;13.81;100.00;101031.00;6275622;22;20012;-85
2022/10/22 08:29:39;;;;;;;13.18;3.88;;;;;;;13.80;100.00;101034.66;6272742;22;20065;-86
2022/10/22 08:32:04;;;;;;;12.00;3.80;;;;;;;13.75;100.00;101036.72;6272826;22;20011;-85
2022/10/22 08:34:30;;;;;;;10.73;3.83;;;;;;;13.83;100.00;101043.31;6274726;22;20003;-85
2022/10/22 08:36:55;;;;;;;10.68;3.67;;;;;;;13.95;100.00;101044.38;6272471;22;20008;-87
2022/10/22 08:39:21;;;;;;;10.90;3.35;;;;;;;14.08;100.00;101050.69;6272121;22;20069;-86
2022/10/22 08:42:04;;;;;;;11.32;3.88;;;;;;;14.39;100.00;101055.00;6273623;22;20000;-86
2022/10/22 08:44:39;;;;;;;13.07;3.70;;;;;;;14.69;100.00;101056.69;6277445;22;20376;-85
2022/10/22 08:47:07;;;;;;;14.93;4.18;;;;;;;14.81;99.31;101066.63;6278276;22;20010;-85
2022/10/22 08:49:37;;;;;;;12.88;4.35;;;;;;;14.98;98.36;101065.53;6281568;22;20007;-85
2022/10/22 08:52:03;;;;;;;14.15;4.13;;;;;;;15.18;97.05;101072.25;6275886;22;19999;-85
2022/10/22 08:54:50;;;;;;;9.32;3.33;;;;;;;15.20;96.75;101064.94;6275359;22;20035;-85
2022/10/22 08:57:38;;;;;;;10.80;4.38;;;;;;;15.29;95.81;101084.94;6273645;22;20009;-86
2022/10/22 09:00:09;;;;;;;10.00;3.40;;;;;;;15.47;94.66;101077.47;6274531;22;20334;-86
2022/10/22 09:03:06;;;;;;;12.57;3.58;;;;;;;15.77;95.42;101077.25;6276265;22;20091;-86
2022/10/22 09:05:40;;;;;;;8.18;2.90;;;;;;;15.92;92.20;101079.72;6275031;22;20027;-86
2022/10/22 09:08:12;;;;;;;10.77;3.97;;;;;;;16.01;91.52;101086.28;6274485;22;20003;-88
2022/10/22 09:10:45;;;;;;;10.60;3.72;;;;;;;16.00;88.86;101094.44;6274351;22;20000;-86
2022/10/22 09:13:14;;;;;;;10.07;3.95;;;;;;;16.01;90.05;101094.34;6275207;22;20008;-84
2022/10/22 09:15:40;;;;;;;7.95;3.35;;;;;;;16.10;88.34;101101.75;6273761;22;20003;-86
2022/10/22 09:18:29;;;;;;;12.43;3.60;;;;;;;16.22;90.41;101104.53;6272822;22;20091;-85
2022/10/22 09:21:20;;;;;;;11.52;3.47;;;;;;;16.14;90.31;101097.88;6274474;22;20242;-85
2022/10/22 09:24:03;;;;;;;11.55;3.55;;;;;;;16.10;89.65;101100.91;6273408;22;20007;-86
2022/10/22 09:26:32;;;;;;;11.70;3.60;;;;;;;16.13;87.90;101106.03;6273851;22;20310;-86
2022/10/22 09:28:59;;;;;;;12.02;4.00;;;;;;;16.32;86.44;101117.22;6272422;22;20003;-86
2022/10/22 09:31:28;;;;;;;11.05;3.38;;;;;;;16.32;86.43;101119.03;6273364;22;20421;-86
2022/10/22 09:33:53;;;;;;;11.90;3.88;;;;;;;16.60;86.20;101126.00;6274463;22;20004;-86
2022/10/22 09:36:21;;;;;;;9.13;3.35;;;;;;;17.00;84.37;101120.44;6276399;22;20013;-86
2022/10/22 09:38:50;;;;;;;14.82;4.35;;;;;;;17.17;81.78;101120.06;6276056;22;20027;-85
2022/10/22 09:41:16;;;;;;;9.88;3.05;;;;;;;17.03;82.16;101129.16;6296297;22;20060;-85
2022/10/22 09:43:41;;;;;;;12.05;3.47;;;;;;;16.79;82.46;101128.25;6275776;22;20003;-84
2022/10/22 09:46:15;;;;;;;10.85;3.45;;;;;;;16.65;83.49;101137.28;6275989;22;20015;-90
2022/10/22 09:48:46;;;;;;;10.95;3.50;;;;;;;16.49;83.17;101134.81;6274230;22;20015;-89
2022/10/22 09:51:19;;;;;;;11.88;3.92;;;;;;;16.34;84.49;101136.75;6274062;22;19996;-89
2022/10/22 09:53:47;;;;;;;14.48;3.42;;;;;;;16.22;84.51;101144.81;6272438;22;20118;-88
2022/10/22 09:56:39;;;;;;;10.23;3.08;;;;;;;16.14;86.31;101142.69;6273578;22;19999;-86
2022/10/22 09:59:05;;;;;;;8.90;2.85;;;;;;;16.05;85.91;101156.72;6270042;22;20074;-84
2022/10/22 10:01:37;;;;;;;10.93;2.88;;;;;;;15.89;86.86;101151.56;6273924;22;20004;-87
2022/10/22 10:04:04;;;;;;;8.80;2.75;;;;;;;15.76;87.64;101159.59;6295458;22;20501;-85
2022/10/22 10:06:32;;;;;;;10.82;2.70;;;;;;;15.66;88.39;101163.84;6274814;22;20035;-86
2022/10/22 10:09:01;;;;;;;8.15;2.58;;;;;;;15.58;89.45;101174.19;6272064;22;19999;-86
2022/10/22 10:11:32;;;;;;;8.68;2.97;;;;;;;15.58;89.20;101174.19;6271199;22;20004;-86
2022/10/22 10:14:04;;;;;;;8.75;2.47;;;;;;;15.66;90.33;101175.44;6272892;22;20007;-86
2022/10/22 10:16:46;;;;;;;9.43;2.60;;;;;;;15.81;88.59;101170.88;6274353;22;20003;-86
2022/10/22 10:19:30;;;;;;;7.50;2.60;;;;;;;16.06;87.76;101174.56;6272133;22;20027;-85
2022/10/22 10:22:12;;;;;;;8.52;2.45;;;;;;;16.22;86.78;101179.72;6274023;22;20333;-86
2022/10/22 10:24:46;;;;;;;11.07;2.97;;;;;;;16.19;85.90;101188.88;6272305;22;20007;-85
2022/10/22 10:27:23;;;;;;;8.23;2.17;;;;;;;16.14;86.60;101196.38;6271352;22;20046;-86
2022/10/22 10:30:02;;;;;;;7.57;2.53;;;;;;;16.09;86.93;101190.44;6277100;22;20004;-84
2022/10/22 10:32:58;;;;;;;8.23;2.70;;;;;;;16.11;88.20;101196.59;6284956;22;20010;-85
2022/10/22 10:35:35;;;;;;;7.93;2.30;;;;;;;16.06;87.37;101202.28;6288347;22;20397;-85
2022/10/22 10:38:30;;;;;;;7.47;2.30;;;;;;;16.09;87.63;101198.50;6277306;22;20004;-86
2022/10/22 10:41:23;;;;;;;9.13;2.85;;;;;;;16.07;87.62;101204.00;6275480;22;20034;-87
2022/10/22 10:43:54;;;;;;;8.00;2.13;;;;;;;16.07;85.37;101200.44;6275729;22;20627;-85
2022/10/22 10:46:45;;;;;;;7.63;2.20;;;;;;;16.08;86.56;101207.53;6273986;22;20007;-85
2022/10/22 10:49:24;;;;;;;5.38;2.05;;;;;;;16.00;86.12;101208.03;6275522;22;20034;-86
2022/10/22 10:52:03;;;;;;;8.63;2.70;;;;;;;15.96;87.29;101217.28;6275380;22;20060;-85
2022/10/22 10:54:34;;;;;;;8.50;2.42;;;;;;;15.93;86.62;101210.31;6275126;22;20434;-85
2022/10/22 10:57:10;;;;;;;10.27;2.70;;;;;;;16.25;87.34;101212.59;6272494;22;20133;-85
2022/10/22 11:00:00;;;;;;;8.98;3.00;;;;;;;16.63;84.70;101199.19;6272013;22;20024;-86
2022/10/22 11:02:47;;;;;;;7.65;2.20;;;;;;;16.90;83.55;101201.78;6272273;22;20125;-86
2022/10/22 11:05:36;;;;;;;6.95;2.30;;;;;;;17.46;82.61;101206.69;6273906;22;20097;-85
2022/10/22 11:08:08;;;;;;;7.35;2.40;;;;;;;17.96;79.30;101211.97;6274108;22;20003;-85
2022/10/22 11:10:45;;;;;;;5.75;2.15;;;;;;;18.28;78.70;101199.59;6276101;22;20067;-85
2022/10/22 11:13:18;;;;;;;8.00;2.45;;;;;;;18.70;74.54;101194.53;6272072;22;20008;-85
2022/10/22 11:15:51;;;;;;;6.32;2.00;;;;;;;20.07;69.06;101200.41;6274008;22;20031;-85
2022/10/22 11:18:26;;;;;;;6.88;2.22;;;;;;;20.44;65.99;101202.59;6273572;22;20039;-84
2022/10/22 11:21:02;;;;;;;9.52;2.17;;;;;;;21.09;64.27;101190.56;6276144;22;20421;-84
2022/10/22 11:23:43;;;;;;;6.30;2.10;;;;;;;21.02;63.94;101184.84;6276763;22;20003;-85